sensor_id;sensor_type;location;lat;lon;timestamp;temperature;humidity
573;DHT22;271;51.114;13.780;2022-10-31T00:00:43;10.40;2.10
573;DHT22;271;51.114;13.780;2022-10-31T00:03:10;10.40;1.00
573;DHT22;271;51.114;13.780;2022-10-31T00:05:40;10.40;1.00
573;DHT22;271;51.114;13.780;2022-10-31T00:08:08;10.30;1.00
573;DHT22;271;51.114;13.780;2022-10-31T00:10:39;10.30;1.00
573;DHT22;271;51.114;13.780;2022-10-31T00:13:06;10.20;1.00
573;DHT22;271;51.114;13.780;2022-10-31T00:15:34;10.20;1.00
573;DHT22;271;51.114;13.780;2022-10-31T00:18:02;10.20;1.00
573;DHT22;271;51.114;13.780;2022-10-31T00:20:29;10.20;1.00
573;DHT22;271;51.114;13.780;2022-10-31T00:22:57;10.10;1.00
573;DHT22;271;51.114;13.780;2022-10-31T00:25:26;10.10;1.00
573;DHT22;271;51.114;13.780;2022-10-31T00:27:55;10.10;1.00
573;DHT22;271;51.114;13.780;2022-10-31T00:30:22;10.10;1.00
573;DHT22;271;51.114;13.780;2022-10-31T00:32:49;10.00;1.00
573;DHT22;271;51.114;13.780;2022-10-31T00:35:16;10.00;1.00
573;DHT22;271;51.114;13.780;2022-10-31T00:37:45;10.00;1.00
573;DHT22;271;51.114;13.780;2022-10-31T00:40:12;9.90;1.00
573;DHT22;271;51.114;13.780;2022-10-31T00:42:39;10.00;1.00
573;DHT22;271;51.114;13.780;2022-10-31T00:45:09;9.90;1.00
573;DHT22;271;51.114;13.780;2022-10-31T00:47:37;9.90;1.00
573;DHT22;271;51.114;13.780;2022-10-31T00:50:05;9.90;1.00
573;DHT22;271;51.114;13.780;2022-10-31T00:52:32;9.90;1.00
573;DHT22;271;51.114;13.780;2022-10-31T00:55:00;9.90;1.00
573;DHT22;271;51.114;13.780;2022-10-31T00:57:27;9.90;1.00
573;DHT22;271;51.114;13.780;2022-10-31T00:59:54;9.90;1.00
573;DHT22;271;51.114;13.780;2022-10-31T01:02:23;9.80;1.00
573;DHT22;271;51.114;13.780;2022-10-31T01:04:50;9.70;1.00
573;DHT22;271;51.114;13.780;2022-10-31T01:07:17;9.90;1.00
573;DHT22;271;51.114;13.780;2022-10-31T01:09:44;9.70;1.00
573;DHT22;271;51.114;13.780;2022-10-31T01:12:11;9.70;1.00
573;DHT22;271;51.114;13.780;2022-10-31T01:14:42;9.80;1.00
573;DHT22;271;51.114;13.780;2022-10-31T01:17:10;9.70;1.00
573;DHT22;271;51.114;13.780;2022-10-31T01:19:38;9.70;1.00
573;DHT22;271;51.114;13.780;2022-10-31T01:22:06;9.70;1.00
573;DHT22;271;51.114;13.780;2022-10-31T01:24:33;9.60;1.00
573;DHT22;271;51.114;13.780;2022-10-31T01:27:00;9.60;1.00
573;DHT22;271;51.114;13.780;2022-10-31T01:29:27;9.60;1.00
573;DHT22;271;51.114;13.780;2022-10-31T01:31:55;9.60;1.00
573;DHT22;271;51.114;13.780;2022-10-31T01:34:22;9.60;1.00
573;DHT22;271;51.114;13.780;2022-10-31T01:36:50;9.60;1.00
573;DHT22;271;51.114;13.780;2022-10-31T01:39:18;9.70;1.00
573;DHT22;271;51.114;13.780;2022-10-31T01:41:48;9.60;1.00
573;DHT22;271;51.114;13.780;2022-10-31T01:44:48;9.60;1.00
573;DHT22;271;51.114;13.780;2022-10-31T01:47:19;9.60;1.00
573;DHT22;271;51.114;13.780;2022-10-31T01:49:50;9.60;1.00
573;DHT22;271;51.114;13.780;2022-10-31T01:52:22;9.60;1.00
573;DHT22;271;51.114;13.780;2022-10-31T01:54:53;9.50;1.00
573;DHT22;271;51.114;13.780;2022-10-31T01:57:23;9.50;1.00
573;DHT22;271;51.114;13.780;2022-10-31T01:59:54;9.50;1.00
573;DHT22;271;51.114;13.780;2022-10-31T02:02:22;9.40;1.00
573;DHT22;271;51.114;13.780;2022-10-31T02:04:50;9.40;1.00
573;DHT22;271;51.114;13.780;2022-10-31T02:07:25;9.40;1.00
573;DHT22;271;51.114;13.780;2022-10-31T02:09:53;9.50;1.00
573;DHT22;271;51.114;13.780;2022-10-31T02:12:22;9.40;1.00
573;DHT22;271;51.114;13.780;2022-10-31T02:14:49;9.50;1.00
573;DHT22;271;51.114;13.780;2022-10-31T02:17:17;9.40;1.00
573;DHT22;271;51.114;13.780;2022-10-31T02:19:51;9.40;1.00
573;DHT22;271;51.114;13.780;2022-10-31T02:22:27;9.40;1.00
573;DHT22;271;51.114;13.780;2022-10-31T02:25:03;9.30;1.00
573;DHT22;271;51.114;13.780;2022-10-31T02:27:54;9.40;1.00
573;DHT22;271;51.114;13.780;2022-10-31T02:30:28;9.30;1.00
573;DHT22;271;51.114;13.780;2022-10-31T02:33:18;9.30;1.00
573;DHT22;271;51.114;13.780;2022-10-31T02:35:55;9.30;1.00
573;DHT22;271;51.114;13.780;2022-10-31T02:38:40;9.20;1.00
573;DHT22;271;51.114;13.780;2022-10-31T02:41:15;9.20;1.00
573;DHT22;271;51.114;13.780;2022-10-31T02:43:52;9.30;1.00
573;DHT22;271;51.114;13.780;2022-10-31T02:46:25;9.30;1.00
573;DHT22;271;51.114;13.780;2022-10-31T02:48:59;9.20;1.00
573;DHT22;271;51.114;13.780;2022-10-31T02:51:28;9.10;1.00
573;DHT22;271;51.114;13.780;2022-10-31T02:53:56;9.10;1.00
573;DHT22;271;51.114;13.780;2022-10-31T02:56:23;9.10;1.00
573;DHT22;271;51.114;13.780;2022-10-31T02:58:52;9.20;1.00
573;DHT22;271;51.114;13.780;2022-10-31T03:01:44;9.10;1.00
573;DHT22;271;51.114;13.780;2022-10-31T03:04:30;9.10;1.00
573;DHT22;271;51.114;13.780;2022-10-31T03:07:06;9.10;1.00
573;DHT22;271;51.114;13.780;2022-10-31T03:09:41;9.10;1.00
573;DHT22;271;51.114;13.780;2022-10-31T03:12:14;9.10;1.00
573;DHT22;271;51.114;13.780;2022-10-31T03:14:51;9.20;1.00
573;DHT22;271;51.114;13.780;2022-10-31T03:17:24;9.00;1.00
573;DHT22;271;51.114;13.780;2022-10-31T03:19:57;9.00;1.00
573;DHT22;271;51.114;13.780;2022-10-31T03:22:29;9.00;1.00
573;DHT22;271;51.114;13.780;2022-10-31T03:25:01;9.10;1.00
573;DHT22;271;51.114;13.780;2022-10-31T03:27:32;9.00;1.00
573;DHT22;271;51.114;13.780;2022-10-31T03:30:03;9.10;1.00
573;DHT22;271;51.114;13.780;2022-10-31T03:32:34;8.90;1.00
573;DHT22;271;51.114;13.780;2022-10-31T03:35:07;8.90;1.00
573;DHT22;271;51.114;13.780;2022-10-31T03:37:36;8.90;1.00
573;DHT22;271;51.114;13.780;2022-10-31T03:40:05;8.90;1.00
573;DHT22;271;51.114;13.780;2022-10-31T03:42:36;8.90;1.00
573;DHT22;271;51.114;13.780;2022-10-31T03:45:07;8.90;1.00
573;DHT22;271;51.114;13.780;2022-10-31T03:47:38;8.90;1.00
573;DHT22;271;51.114;13.780;2022-10-31T03:50:09;9.00;1.00
573;DHT22;271;51.114;13.780;2022-10-31T03:52:42;8.80;1.00
573;DHT22;271;51.114;13.780;2022-10-31T03:55:16;8.80;1.00
573;DHT22;271;51.114;13.780;2022-10-31T03:57:51;8.90;1.00
573;DHT22;271;51.114;13.780;2022-10-31T04:00:19;8.80;1.00
573;DHT22;271;51.114;13.780;2022-10-31T04:02:50;8.70;1.00
573;DHT22;271;51.114;13.780;2022-10-31T04:05:20;8.70;1.00
573;DHT22;271;51.114;13.780;2022-10-31T04:07:51;8.80;1.00
573;DHT22;271;51.114;13.780;2022-10-31T04:10:21;8.80;1.00
573;DHT22;271;51.114;13.780;2022-10-31T04:12:52;8.70;1.00
573;DHT22;271;51.114;13.780;2022-10-31T04:15:22;8.70;1.00
573;DHT22;271;51.114;13.780;2022-10-31T04:17:53;8.80;1.00
573;DHT22;271;51.114;13.780;2022-10-31T04:20:31;8.80;1.00
573;DHT22;271;51.114;13.780;2022-10-31T04:22:59;8.70;1.00
573;DHT22;271;51.114;13.780;2022-10-31T04:25:27;8.70;1.00
573;DHT22;271;51.114;13.780;2022-10-31T04:27:54;8.70;1.00
573;DHT22;271;51.114;13.780;2022-10-31T04:30:21;8.70;1.00
573;DHT22;271;51.114;13.780;2022-10-31T04:32:49;8.70;1.00
573;DHT22;271;51.114;13.780;2022-10-31T04:35:16;8.60;1.00
573;DHT22;271;51.114;13.780;2022-10-31T04:37:44;8.60;1.00
573;DHT22;271;51.114;13.780;2022-10-31T04:40:12;8.60;1.00
573;DHT22;271;51.114;13.780;2022-10-31T04:42:39;8.60;1.00
573;DHT22;271;51.114;13.780;2022-10-31T04:45:06;8.60;1.00
573;DHT22;271;51.114;13.780;2022-10-31T04:47:34;8.60;1.00
573;DHT22;271;51.114;13.780;2022-10-31T04:50:02;8.60;1.00
573;DHT22;271;51.114;13.780;2022-10-31T04:52:29;8.50;1.00
573;DHT22;271;51.114;13.780;2022-10-31T04:54:58;8.60;1.00
573;DHT22;271;51.114;13.780;2022-10-31T04:57:25;8.50;1.00
573;DHT22;271;51.114;13.780;2022-10-31T04:59:52;8.50;1.00
573;DHT22;271;51.114;13.780;2022-10-31T05:02:19;8.60;1.00
573;DHT22;271;51.114;13.780;2022-10-31T05:04:46;8.60;1.00
573;DHT22;271;51.114;13.780;2022-10-31T05:07:13;8.50;1.00
573;DHT22;271;51.114;13.780;2022-10-31T05:09:41;8.60;1.00
573;DHT22;271;51.114;13.780;2022-10-31T05:12:09;8.50;1.00
573;DHT22;271;51.114;13.780;2022-10-31T05:14:36;8.50;1.00
573;DHT22;271;51.114;13.780;2022-10-31T05:17:04;8.40;1.00
573;DHT22;271;51.114;13.780;2022-10-31T05:19:31;8.40;1.00
573;DHT22;271;51.114;13.780;2022-10-31T05:21:58;8.40;1.00
573;DHT22;271;51.114;13.780;2022-10-31T05:24:25;8.40;1.00
573;DHT22;271;51.114;13.780;2022-10-31T05:26:52;8.40;1.00
573;DHT22;271;51.114;13.780;2022-10-31T05:29:21;8.30;1.00
573;DHT22;271;51.114;13.780;2022-10-31T05:31:48;8.40;1.00
573;DHT22;271;51.114;13.780;2022-10-31T05:34:15;8.40;1.00
573;DHT22;271;51.114;13.780;2022-10-31T05:36:42;8.30;1.00
573;DHT22;271;51.114;13.780;2022-10-31T05:39:09;8.30;1.00
573;DHT22;271;51.114;13.780;2022-10-31T05:41:37;8.20;1.00
573;DHT22;271;51.114;13.780;2022-10-31T05:44:04;8.30;1.00
573;DHT22;271;51.114;13.780;2022-10-31T05:46:33;8.20;1.00
573;DHT22;271;51.114;13.780;2022-10-31T05:49:00;8.30;1.00
573;DHT22;271;51.114;13.780;2022-10-31T05:51:27;8.30;1.00
573;DHT22;271;51.114;13.780;2022-10-31T05:53:54;8.30;1.00
573;DHT22;271;51.114;13.780;2022-10-31T05:56:22;8.20;1.00
573;DHT22;271;51.114;13.780;2022-10-31T05:58:49;8.20;1.00
573;DHT22;271;51.114;13.780;2022-10-31T06:01:16;8.30;1.00
573;DHT22;271;51.114;13.780;2022-10-31T06:03:45;8.30;1.00
573;DHT22;271;51.114;13.780;2022-10-31T06:06:12;8.30;1.00
573;DHT22;271;51.114;13.780;2022-10-31T06:08:40;8.20;1.00
573;DHT22;271;51.114;13.780;2022-10-31T06:11:07;8.30;1.00
573;DHT22;271;51.114;13.780;2022-10-31T06:13:34;8.30;1.00
573;DHT22;271;51.114;13.780;2022-10-31T06:16:02;8.20;1.00
573;DHT22;271;51.114;13.780;2022-10-31T06:18:29;8.30;1.00
573;DHT22;271;51.114;13.780;2022-10-31T06:20:57;8.30;1.00
573;DHT22;271;51.114;13.780;2022-10-31T06:23:25;8.30;1.00
573;DHT22;271;51.114;13.780;2022-10-31T06:25:52;8.30;1.00
573;DHT22;271;51.114;13.780;2022-10-31T06:28:19;8.40;1.00
573;DHT22;271;51.114;13.780;2022-10-31T06:30:46;8.30;1.00
573;DHT22;271;51.114;13.780;2022-10-31T06:33:13;8.40;1.00
573;DHT22;271;51.114;13.780;2022-10-31T06:35:45;8.40;1.00
573;DHT22;271;51.114;13.780;2022-10-31T06:38:14;8.40;1.00
573;DHT22;271;51.114;13.780;2022-10-31T06:40:41;8.50;1.00
573;DHT22;271;51.114;13.780;2022-10-31T06:43:08;8.50;1.00
573;DHT22;271;51.114;13.780;2022-10-31T06:45:37;8.50;1.00
573;DHT22;271;51.114;13.780;2022-10-31T06:48:05;8.50;1.00
573;DHT22;271;51.114;13.780;2022-10-31T06:50:32;8.60;1.00
573;DHT22;271;51.114;13.780;2022-10-31T06:52:59;8.60;1.00
573;DHT22;271;51.114;13.780;2022-10-31T06:55:28;8.60;1.00
573;DHT22;271;51.114;13.780;2022-10-31T06:57:56;8.60;1.00
573;DHT22;271;51.114;13.780;2022-10-31T07:00:24;8.70;1.00
573;DHT22;271;51.114;13.780;2022-10-31T07:02:55;8.70;1.00
573;DHT22;271;51.114;13.780;2022-10-31T07:05:22;8.80;1.00
573;DHT22;271;51.114;13.780;2022-10-31T07:07:52;8.80;1.00
573;DHT22;271;51.114;13.780;2022-10-31T07:10:20;8.90;1.00
573;DHT22;271;51.114;13.780;2022-10-31T07:12:51;9.00;1.10
573;DHT22;271;51.114;13.780;2022-10-31T07:15:20;9.00;1.20
573;DHT22;271;51.114;13.780;2022-10-31T07:17:47;9.00;2.40
573;DHT22;271;51.114;13.780;2022-10-31T07:20:15;9.10;4.60
573;DHT22;271;51.114;13.780;2022-10-31T07:22:42;9.10;4.20
573;DHT22;271;51.114;13.780;2022-10-31T07:25:10;9.20;4.80
573;DHT22;271;51.114;13.780;2022-10-31T07:27:37;9.20;6.60
573;DHT22;271;51.114;13.780;2022-10-31T07:30:08;9.30;7.70
573;DHT22;271;51.114;13.780;2022-10-31T07:32:39;9.40;7.30
573;DHT22;271;51.114;13.780;2022-10-31T07:35:07;9.50;6.10
573;DHT22;271;51.114;13.780;2022-10-31T07:37:35;9.60;4.50
573;DHT22;271;51.114;13.780;2022-10-31T07:40:02;9.60;3.70
573;DHT22;271;51.114;13.780;2022-10-31T07:42:34;9.70;4.30
573;DHT22;271;51.114;13.780;2022-10-31T07:45:02;9.80;4.10
573;DHT22;271;51.114;13.780;2022-10-31T07:47:37;9.90;1.00
573;DHT22;271;51.114;13.780;2022-10-31T07:50:05;9.90;1.40
573;DHT22;271;51.114;13.780;2022-10-31T07:52:33;10.00;1.90
573;DHT22;271;51.114;13.780;2022-10-31T07:55:00;10.10;2.80
573;DHT22;271;51.114;13.780;2022-10-31T07:57:28;10.20;2.40
573;DHT22;271;51.114;13.780;2022-10-31T07:59:55;10.30;1.50
573;DHT22;271;51.114;13.780;2022-10-31T08:02:22;10.40;2.90
573;DHT22;271;51.114;13.780;2022-10-31T08:04:51;10.60;1.00
573;DHT22;271;51.114;13.780;2022-10-31T08:07:18;10.70;1.00
573;DHT22;271;51.114;13.780;2022-10-31T08:09:46;10.80;1.00
573;DHT22;271;51.114;13.780;2022-10-31T08:12:13;10.90;3.40
573;DHT22;271;51.114;13.780;2022-10-31T08:14:40;11.10;3.40
573;DHT22;271;51.114;13.780;2022-10-31T08:17:07;11.50;2.40
573;DHT22;271;51.114;13.780;2022-10-31T08:19:34;11.90;1.00
573;DHT22;271;51.114;13.780;2022-10-31T08:22:03;12.30;1.00
573;DHT22;271;51.114;13.780;2022-10-31T08:24:30;12.80;1.00
573;DHT22;271;51.114;13.780;2022-10-31T08:26:57;13.40;1.00
573;DHT22;271;51.114;13.780;2022-10-31T08:29:24;13.90;1.00
573;DHT22;271;51.114;13.780;2022-10-31T08:31:52;14.40;1.00
573;DHT22;271;51.114;13.780;2022-10-31T08:34:19;14.80;1.00
573;DHT22;271;51.114;13.780;2022-10-31T08:36:46;15.30;1.00
573;DHT22;271;51.114;13.780;2022-10-31T08:39:15;15.60;1.00
573;DHT22;271;51.114;13.780;2022-10-31T08:41:42;15.90;1.00
573;DHT22;271;51.114;13.780;2022-10-31T08:44:09;16.20;1.00
573;DHT22;271;51.114;13.780;2022-10-31T08:46:37;16.40;1.00
573;DHT22;271;51.114;13.780;2022-10-31T08:49:04;16.60;1.00
573;DHT22;271;51.114;13.780;2022-10-31T08:51:31;16.90;1.00
573;DHT22;271;51.114;13.780;2022-10-31T08:53:58;17.20;1.00
573;DHT22;271;51.114;13.780;2022-10-31T08:56:27;17.50;1.00
573;DHT22;271;51.114;13.780;2022-10-31T08:58:54;17.80;1.00
573;DHT22;271;51.114;13.780;2022-10-31T09:01:24;18.10;1.00
573;DHT22;271;51.114;13.780;2022-10-31T09:03:52;18.40;1.00
573;DHT22;271;51.114;13.780;2022-10-31T09:06:19;18.70;1.00
573;DHT22;271;51.114;13.780;2022-10-31T09:09:05;19.10;1.00
573;DHT22;271;51.114;13.780;2022-10-31T09:11:35;19.50;1.00
573;DHT22;271;51.114;13.780;2022-10-31T09:14:02;19.90;1.00
573;DHT22;271;51.114;13.780;2022-10-31T09:16:29;20.40;1.00
573;DHT22;271;51.114;13.780;2022-10-31T09:18:56;20.90;1.00
573;DHT22;271;51.114;13.780;2022-10-31T09:21:24;21.30;1.00
573;DHT22;271;51.114;13.780;2022-10-31T09:23:52;21.70;1.00
573;DHT22;271;51.114;13.780;2022-10-31T09:26:19;22.10;1.00
573;DHT22;271;51.114;13.780;2022-10-31T09:28:48;22.30;1.00
573;DHT22;271;51.114;13.780;2022-10-31T09:31:16;22.50;1.00
573;DHT22;271;51.114;13.780;2022-10-31T09:33:43;22.80;1.00
573;DHT22;271;51.114;13.780;2022-10-31T09:36:10;22.80;1.00
573;DHT22;271;51.114;13.780;2022-10-31T09:38:37;23.20;1.00
573;DHT22;271;51.114;13.780;2022-10-31T09:41:08;23.30;1.00
573;DHT22;271;51.114;13.780;2022-10-31T09:43:48;23.40;1.00
573;DHT22;271;51.114;13.780;2022-10-31T09:46:26;23.30;1.00
573;DHT22;271;51.114;13.780;2022-10-31T09:49:11;23.20;1.00
573;DHT22;271;51.114;13.780;2022-10-31T09:51:47;23.40;1.00
573;DHT22;271;51.114;13.780;2022-10-31T09:54:18;23.50;1.00
573;DHT22;271;51.114;13.780;2022-10-31T09:56:46;23.50;1.00
573;DHT22;271;51.114;13.780;2022-10-31T09:59:25;23.30;1.00
573;DHT22;271;51.114;13.780;2022-10-31T10:01:56;23.40;1.00
573;DHT22;271;51.114;13.780;2022-10-31T10:04:37;23.50;1.00
573;DHT22;271;51.114;13.780;2022-10-31T10:07:12;23.50;1.00
573;DHT22;271;51.114;13.780;2022-10-31T10:09:41;23.20;1.00
573;DHT22;271;51.114;13.780;2022-10-31T10:12:16;23.00;1.00
573;DHT22;271;51.114;13.780;2022-10-31T10:14:56;23.00;1.00
573;DHT22;271;51.114;13.780;2022-10-31T10:17:36;22.40;1.00
573;DHT22;271;51.114;13.780;2022-10-31T10:20:27;22.20;1.00
573;DHT22;271;51.114;13.780;2022-10-31T10:23:13;21.80;1.00
573;DHT22;271;51.114;13.780;2022-10-31T10:25:46;21.90;1.00
573;DHT22;271;51.114;13.780;2022-10-31T10:28:21;21.80;1.00
573;DHT22;271;51.114;13.780;2022-10-31T10:31:10;21.50;1.00
573;DHT22;271;51.114;13.780;2022-10-31T10:34:02;21.00;1.00
573;DHT22;271;51.114;13.780;2022-10-31T10:36:42;20.90;1.00
573;DHT22;271;51.114;13.780;2022-10-31T10:39:15;20.80;1.00
573;DHT22;271;51.114;13.780;2022-10-31T10:41:47;20.80;1.00
573;DHT22;271;51.114;13.780;2022-10-31T10:44:29;20.80;1.00
573;DHT22;271;51.114;13.780;2022-10-31T10:47:14;20.90;1.00
573;DHT22;271;51.114;13.780;2022-10-31T10:50:13;20.70;1.00
573;DHT22;271;51.114;13.780;2022-10-31T10:52:47;20.60;1.00
573;DHT22;271;51.114;13.780;2022-10-31T10:55:26;20.40;1.00
573;DHT22;271;51.114;13.780;2022-10-31T10:57:59;20.30;1.00
573;DHT22;271;51.114;13.780;2022-10-31T11:00:30;20.20;1.00
573;DHT22;271;51.114;13.780;2022-10-31T11:02:58;20.20;1.00
573;DHT22;271;51.114;13.780;2022-10-31T11:05:33;20.10;1.00
573;DHT22;271;51.114;13.780;2022-10-31T11:08:01;20.10;1.00
573;DHT22;271;51.114;13.780;2022-10-31T11:10:28;20.10;1.00
573;DHT22;271;51.114;13.780;2022-10-31T11:13:06;20.20;1.00
573;DHT22;271;51.114;13.780;2022-10-31T11:15:38;20.30;1.00
573;DHT22;271;51.114;13.780;2022-10-31T11:18:20;20.10;1.00
573;DHT22;271;51.114;13.780;2022-10-31T11:20:52;19.80;1.00
573;DHT22;271;51.114;13.780;2022-10-31T11:23:21;19.90;1.00
573;DHT22;271;51.114;13.780;2022-10-31T11:25:51;20.00;1.00
573;DHT22;271;51.114;13.780;2022-10-31T11:28:18;19.90;1.00
573;DHT22;271;51.114;13.780;2022-10-31T11:30:47;19.80;1.00
573;DHT22;271;51.114;13.780;2022-10-31T11:33:19;19.70;1.00
573;DHT22;271;51.114;13.780;2022-10-31T11:35:47;19.80;1.00
573;DHT22;271;51.114;13.780;2022-10-31T11:38:19;19.80;1.00
573;DHT22;271;51.114;13.780;2022-10-31T11:40:54;19.70;1.00
573;DHT22;271;51.114;13.780;2022-10-31T11:43:23;19.70;1.00
573;DHT22;271;51.114;13.780;2022-10-31T11:45:51;19.70;1.00
573;DHT22;271;51.114;13.780;2022-10-31T11:48:20;19.80;1.00
573;DHT22;271;51.114;13.780;2022-10-31T11:50:50;19.80;1.00
573;DHT22;271;51.114;13.780;2022-10-31T11:53:21;19.70;1.00
573;DHT22;271;51.114;13.780;2022-10-31T11:56:01;19.70;1.00
573;DHT22;271;51.114;13.780;2022-10-31T11:58:29;19.70;1.00
573;DHT22;271;51.114;13.780;2022-10-31T12:00:57;19.80;1.00
573;DHT22;271;51.114;13.780;2022-10-31T12:03:36;19.60;1.00
573;DHT22;271;51.114;13.780;2022-10-31T12:06:09;19.50;1.00
573;DHT22;271;51.114;13.780;2022-10-31T12:08:40;19.50;1.00
573;DHT22;271;51.114;13.780;2022-10-31T12:11:16;19.60;1.00
573;DHT22;271;51.114;13.780;2022-10-31T12:13:56;19.70;1.00
573;DHT22;271;51.114;13.780;2022-10-31T12:16:28;19.70;1.00
573;DHT22;271;51.114;13.780;2022-10-31T12:19:02;19.60;1.00
573;DHT22;271;51.114;13.780;2022-10-31T12:21:56;19.60;1.00
573;DHT22;271;51.114;13.780;2022-10-31T12:24:37;19.80;1.00
573;DHT22;271;51.114;13.780;2022-10-31T12:27:16;19.80;1.00
573;DHT22;271;51.114;13.780;2022-10-31T12:29:55;19.90;1.00
573;DHT22;271;51.114;13.780;2022-10-31T12:32:33;20.00;1.00
573;DHT22;271;51.114;13.780;2022-10-31T12:35:24;20.00;1.00
573;DHT22;271;51.114;13.780;2022-10-31T12:38:06;20.00;1.00
573;DHT22;271;51.114;13.780;2022-10-31T12:40:47;20.00;1.00
573;DHT22;271;51.114;13.780;2022-10-31T12:43:31;20.00;1.00
573;DHT22;271;51.114;13.780;2022-10-31T12:46:02;20.10;1.00
573;DHT22;271;51.114;13.780;2022-10-31T12:48:58;20.10;1.00
573;DHT22;271;51.114;13.780;2022-10-31T12:51:32;20.10;1.00
573;DHT22;271;51.114;13.780;2022-10-31T12:54:29;20.00;1.00
573;DHT22;271;51.114;13.780;2022-10-31T12:57:06;20.00;1.00
573;DHT22;271;51.114;13.780;2022-10-31T12:59:39;20.00;1.00
573;DHT22;271;51.114;13.780;2022-10-31T13:02:15;20.10;1.00
573;DHT22;271;51.114;13.780;2022-10-31T13:04:47;20.20;1.00
573;DHT22;271;51.114;13.780;2022-10-31T13:07:20;20.20;1.00
573;DHT22;271;51.114;13.780;2022-10-31T13:09:54;20.20;1.00
573;DHT22;271;51.114;13.780;2022-10-31T13:12:27;20.30;1.00
573;DHT22;271;51.114;13.780;2022-10-31T13:14:59;20.30;1.00
573;DHT22;271;51.114;13.780;2022-10-31T13:17:31;20.40;1.00
573;DHT22;271;51.114;13.780;2022-10-31T13:20:16;20.30;1.00
573;DHT22;271;51.114;13.780;2022-10-31T13:22:48;20.40;1.00
573;DHT22;271;51.114;13.780;2022-10-31T13:25:20;20.40;1.00
573;DHT22;271;51.114;13.780;2022-10-31T13:27:53;20.50;1.00
573;DHT22;271;51.114;13.780;2022-10-31T13:30:22;20.60;1.00
573;DHT22;271;51.114;13.780;2022-10-31T13:32:54;20.50;1.00
573;DHT22;271;51.114;13.780;2022-10-31T13:35:28;20.60;1.00
573;DHT22;271;51.114;13.780;2022-10-31T13:38:09;20.60;1.00
573;DHT22;271;51.114;13.780;2022-10-31T13:40:44;20.80;1.00
573;DHT22;271;51.114;13.780;2022-10-31T13:43:22;20.80;1.00
573;DHT22;271;51.114;13.780;2022-10-31T13:45:52;20.80;1.00
573;DHT22;271;51.114;13.780;2022-10-31T13:48:36;21.00;1.00
573;DHT22;271;51.114;13.780;2022-10-31T13:51:05;21.00;1.00
573;DHT22;271;51.114;13.780;2022-10-31T13:53:43;21.10;1.00
573;DHT22;271;51.114;13.780;2022-10-31T13:56:16;21.10;1.00
573;DHT22;271;51.114;13.780;2022-10-31T13:59:01;21.00;1.00
573;DHT22;271;51.114;13.780;2022-10-31T14:01:31;20.90;1.00
573;DHT22;271;51.114;13.780;2022-10-31T14:04:03;20.70;1.00
573;DHT22;271;51.114;13.780;2022-10-31T14:06:40;20.60;1.00
573;DHT22;271;51.114;13.780;2022-10-31T14:09:20;20.50;1.00
573;DHT22;271;51.114;13.780;2022-10-31T14:11:49;20.30;1.00
573;DHT22;271;51.114;13.780;2022-10-31T14:14:19;20.20;1.00
573;DHT22;271;51.114;13.780;2022-10-31T14:16:53;20.00;1.00
573;DHT22;271;51.114;13.780;2022-10-31T14:19:21;19.80;1.00
573;DHT22;271;51.114;13.780;2022-10-31T14:21:50;19.70;1.00
573;DHT22;271;51.114;13.780;2022-10-31T14:24:33;19.70;1.00
573;DHT22;271;51.114;13.780;2022-10-31T14:27:32;19.60;1.00
573;DHT22;271;51.114;13.780;2022-10-31T14:30:14;19.50;1.00
573;DHT22;271;51.114;13.780;2022-10-31T14:32:42;19.40;1.00
573;DHT22;271;51.114;13.780;2022-10-31T14:35:15;19.20;1.00
573;DHT22;271;51.114;13.780;2022-10-31T14:41:04;18.90;1.00
573;DHT22;271;51.114;13.780;2022-10-31T14:44:00;18.70;1.00
573;DHT22;271;51.114;13.780;2022-10-31T14:46:43;18.40;1.00
573;DHT22;271;51.114;13.780;2022-10-31T14:49:23;18.30;1.00
573;DHT22;271;51.114;13.780;2022-10-31T14:51:55;18.20;1.00
573;DHT22;271;51.114;13.780;2022-10-31T14:54:27;18.00;1.00
573;DHT22;271;51.114;13.780;2022-10-31T14:56:59;17.80;1.00
573;DHT22;271;51.114;13.780;2022-10-31T14:59:30;17.70;1.00
573;DHT22;271;51.114;13.780;2022-10-31T15:02:07;17.60;1.00
573;DHT22;271;51.114;13.780;2022-10-31T15:04:36;17.50;1.00
573;DHT22;271;51.114;13.780;2022-10-31T15:07:11;17.30;1.00
573;DHT22;271;51.114;13.780;2022-10-31T15:09:40;17.20;1.00
573;DHT22;271;51.114;13.780;2022-10-31T15:12:26;17.10;1.00
573;DHT22;271;51.114;13.780;2022-10-31T15:14:55;16.90;1.00
573;DHT22;271;51.114;13.780;2022-10-31T15:17:26;16.80;1.00
573;DHT22;271;51.114;13.780;2022-10-31T15:19:53;16.70;1.00
573;DHT22;271;51.114;13.780;2022-10-31T15:22:23;16.60;1.00
573;DHT22;271;51.114;13.780;2022-10-31T15:24:53;16.50;1.00
573;DHT22;271;51.114;13.780;2022-10-31T15:27:23;16.30;1.00
573;DHT22;271;51.114;13.780;2022-10-31T15:29:52;16.20;1.00
573;DHT22;271;51.114;13.780;2022-10-31T15:32:21;16.10;1.00
573;DHT22;271;51.114;13.780;2022-10-31T15:34:51;16.10;1.00
573;DHT22;271;51.114;13.780;2022-10-31T15:37:20;16.00;1.00
573;DHT22;271;51.114;13.780;2022-10-31T15:39:49;15.80;1.00
573;DHT22;271;51.114;13.780;2022-10-31T15:42:21;15.80;1.00
573;DHT22;271;51.114;13.780;2022-10-31T15:44:59;15.60;1.00
573;DHT22;271;51.114;13.780;2022-10-31T15:47:29;15.60;1.00
573;DHT22;271;51.114;13.780;2022-10-31T15:49:59;15.50;1.00
573;DHT22;271;51.114;13.780;2022-10-31T15:52:30;15.30;1.00
573;DHT22;271;51.114;13.780;2022-10-31T15:55:01;15.30;1.00
573;DHT22;271;51.114;13.780;2022-10-31T15:57:30;15.20;1.00
573;DHT22;271;51.114;13.780;2022-10-31T15:59:58;15.10;1.00
573;DHT22;271;51.114;13.780;2022-10-31T16:02:27;15.00;1.00
573;DHT22;271;51.114;13.780;2022-10-31T16:04:55;14.80;1.00
573;DHT22;271;51.114;13.780;2022-10-31T16:07:25;14.80;1.00
573;DHT22;271;51.114;13.780;2022-10-31T16:09:54;14.70;1.00
573;DHT22;271;51.114;13.780;2022-10-31T16:12:23;14.60;1.00
573;DHT22;271;51.114;13.780;2022-10-31T16:14:53;14.50;1.00
573;DHT22;271;51.114;13.780;2022-10-31T16:17:23;14.40;1.00
573;DHT22;271;51.114;13.780;2022-10-31T16:19:55;14.40;1.00
573;DHT22;271;51.114;13.780;2022-10-31T16:22:28;14.30;1.00
573;DHT22;271;51.114;13.780;2022-10-31T16:25:01;14.30;1.00
573;DHT22;271;51.114;13.780;2022-10-31T16:27:31;14.20;1.00
573;DHT22;271;51.114;13.780;2022-10-31T16:30:00;14.20;1.00
573;DHT22;271;51.114;13.780;2022-10-31T16:32:33;14.10;1.00
573;DHT22;271;51.114;13.780;2022-10-31T16:35:16;14.10;1.00
573;DHT22;271;51.114;13.780;2022-10-31T16:37:45;14.00;1.00
573;DHT22;271;51.114;13.780;2022-10-31T16:40:13;14.00;1.00
573;DHT22;271;51.114;13.780;2022-10-31T16:42:40;13.90;1.00
573;DHT22;271;51.114;13.780;2022-10-31T16:45:14;13.90;1.00
573;DHT22;271;51.114;13.780;2022-10-31T16:47:42;13.80;1.00
573;DHT22;271;51.114;13.780;2022-10-31T16:50:14;13.70;1.00
573;DHT22;271;51.114;13.780;2022-10-31T16:52:42;13.70;1.00
573;DHT22;271;51.114;13.780;2022-10-31T16:55:13;13.70;1.00
573;DHT22;271;51.114;13.780;2022-10-31T16:57:42;13.60;1.00
573;DHT22;271;51.114;13.780;2022-10-31T17:00:15;13.60;1.00
573;DHT22;271;51.114;13.780;2022-10-31T17:02:43;13.50;1.00
573;DHT22;271;51.114;13.780;2022-10-31T17:05:13;13.40;1.00
573;DHT22;271;51.114;13.780;2022-10-31T17:07:41;13.40;1.00
573;DHT22;271;51.114;13.780;2022-10-31T17:10:09;13.40;1.00
573;DHT22;271;51.114;13.780;2022-10-31T17:12:40;13.30;1.00